Time;durP1;ratioP1;P1;durP2;ratioP2;P2;SDS_P1;SDS_P2;PMS_P1;PMS_P2;Temp;Humidity;BMP_temperature;BMP_pressure;BME280_temperature;BME280_humidity;BME280_pressure;Samples;Min_cycle;Max_cycle;Signal;HPM_P1;HPM_P2
2022/05/16 00:02:25;;;;;;;5.10;2.25;;;;;;;9.72;87.34;144646.78;1620213;89;21059;-67
2022/05/16 00:04:52;;;;;;;6.17;2.37;;;;;;;9.70;87.52;144641.75;1657925;86;21052;-66
2022/05/16 00:07:21;;;;;;;6.78;2.80;;;;;;;9.67;87.82;144634.25;1619957;89;21075;-65
2022/05/16 00:09:48;;;;;;;7.50;2.55;;;;;;;9.65;87.74;144629.22;1657991;86;21514;-68
2022/05/16 00:12:16;;;;;;;7.25;2.27;;;;;;;9.63;87.93;144622.95;1620026;89;21098;-68
2022/05/16 00:14:46;;;;;;;8.03;2.62;;;;;;;9.62;88.05;144620.47;1658006;86;21040;-62
2022/05/16 00:17:14;;;;;;;7.40;2.70;;;;;;;9.60;88.25;144616.69;1658048;86;21103;-64
2022/05/16 00:19:41;;;;;;;7.00;2.20;;;;;;;9.57;88.18;144609.17;1657994;86;21060;-64
2022/05/16 00:22:09;;;;;;;6.10;2.30;;;;;;;9.53;88.32;144599.13;1620151;89;21072;-65
2022/05/16 00:24:42;;;;;;;7.92;2.30;;;;;;;9.49;88.36;144590.37;1658119;86;21112;-65
2022/05/16 00:27:12;;;;;;;6.22;2.20;;;;;;;9.46;88.46;144581.58;1658205;86;21057;-61
2022/05/16 00:29:39;;;;;;;5.15;2.00;;;;;;;9.44;88.66;144576.56;1620504;89;21093;-66
2022/05/16 00:32:08;;;;;;;9.15;2.20;;;;;;;9.40;88.58;144566.56;1657981;86;21096;-70
2022/05/16 00:34:36;;;;;;;10.63;3.17;;;;;;;9.40;88.51;144566.56;1658056;86;21064;-64
2022/05/16 00:37:03;;;;;;;7.90;2.67;;;;;;;9.38;88.44;144561.53;1620281;89;21541;-65
2022/05/16 00:39:30;;;;;;;4.67;2.37;;;;;;;9.33;88.47;144551.50;1658010;86;21165;-62
2022/05/16 00:41:59;;;;;;;8.43;2.35;;;;;;;9.30;88.49;144543.98;1620202;89;21565;-61
2022/05/16 00:44:26;;;;;;;10.90;2.30;;;;;;;9.27;88.56;144535.23;1658191;86;21068;-59
2022/05/16 00:46:54;;;;;;;7.17;2.60;;;;;;;9.24;88.70;144528.97;1658025;86;21088;-65
2022/05/16 00:49:30;;;;;;;10.63;3.45;;;;;;;9.23;88.77;144526.44;1620170;89;21090;-62
2022/05/16 00:52:19;;;;;;;6.15;2.72;;;;;;;9.21;88.61;144521.47;1658335;86;21004;-64
2022/05/16 00:54:54;;;;;;;9.30;3.35;;;;;;;9.20;88.53;144517.69;1620218;89;21107;-63
2022/05/16 00:57:28;;;;;;;9.40;3.35;;;;;;;9.16;88.45;144508.94;1658199;86;21072;-65
2022/05/16 01:00:16;;;;;;;8.50;3.15;;;;;;;9.13;88.37;144501.39;1594926;89;21124;-64
2022/05/16 01:05:41;;;;;;;10.30;3.45;;;;;;;9.10;88.25;144493.88;1620216;89;21193;-69
2022/05/16 01:08:14;;;;;;;7.83;3.08;;;;;;;9.11;88.05;144496.41;1657872;86;21538;-65
2022/05/16 01:10:41;;;;;;;7.28;3.35;;;;;;;9.11;87.80;144496.41;1658207;86;21028;-62
2022/05/16 01:13:09;;;;;;;8.73;3.75;;;;;;;9.11;87.60;144496.41;1620180;89;21601;-65
2022/05/16 01:15:44;;;;;;;10.70;3.30;;;;;;;9.10;87.52;144493.88;1658003;86;21028;-58
2022/05/16 01:18:16;;;;;;;9.53;3.37;;;;;;;9.07;87.37;144486.38;1620179;89;21538;-61
2022/05/16 01:21:08;;;;;;;10.98;3.40;;;;;;;9.05;87.36;144481.34;1658055;86;21064;-58
2022/05/16 01:23:50;;;;;;;10.25;2.98;;;;;;;9.04;87.41;144478.87;1619433;89;21080;-63
2022/05/16 01:26:21;;;;;;;8.68;3.58;;;;;;;9.04;87.37;144478.87;1656864;86;21565;-68
2022/05/16 01:28:48;;;;;;;10.90;4.72;;;;;;;9.04;87.39;144478.87;1619750;88;21079;-65
2022/05/16 01:31:14;;;;;;;8.58;3.10;;;;;;;9.03;87.35;144476.33;1657930;86;21063;-66
2022/05/16 01:33:41;;;;;;;8.60;3.58;;;;;;;8.98;87.48;144463.81;1620207;89;21063;-66
2022/05/16 01:36:10;;;;;;;11.05;3.27;;;;;;;8.94;87.54;144453.81;1657945;86;21599;-69
2022/05/16 01:38:37;;;;;;;12.68;3.27;;;;;;;8.91;87.45;144448.80;1620066;89;21079;-62
2022/05/16 01:41:09;;;;;;;10.93;3.67;;;;;;;8.89;87.52;144442.53;1657896;86;21518;-60
2022/05/16 01:43:41;;;;;;;10.85;3.37;;;;;;;8.88;87.57;144440.05;1619976;89;21083;-63
2022/05/16 01:46:11;;;;;;;8.90;3.42;;;;;;;8.87;87.63;144438.75;1658220;86;21076;-61
2022/05/16 01:48:38;;;;;;;11.00;4.20;;;;;;;8.85;87.63;144433.78;1616980;89;21608;-61
2022/05/16 01:51:09;;;;;;;8.75;3.83;;;;;;;8.80;87.66;144419.97;1648280;87;21523;-60
2022/05/16 01:53:38;;;;;;;9.18;3.90;;;;;;;8.77;87.64;144413.70;1672165;86;21040;-67
2022/05/16 01:56:07;;;;;;;11.73;4.12;;;;;;;8.73;87.78;144403.72;1671466;86;21577;-64
2022/05/16 01:58:35;;;;;;;9.50;3.65;;;;;;;8.68;87.86;144391.19;1671455;86;21111;-68
2022/05/16 02:01:02;;;;;;;12.65;3.70;;;;;;;8.64;88.00;144381.16;1671738;86;21585;-61
2022/05/16 02:03:29;;;;;;;9.55;2.92;;;;;;;8.63;88.16;144378.67;1615395;89;21079;-66
2022/05/16 02:05:56;;;;;;;10.75;3.58;;;;;;;8.60;88.17;144371.13;1648376;87;21158;-60
2022/05/16 02:08:25;;;;;;;8.85;3.00;;;;;;;8.57;88.30;144363.63;1671716;86;21067;-66
2022/05/16 02:10:53;;;;;;;10.20;3.62;;;;;;;8.53;88.31;144353.63;1671506;86;21091;-69
2022/05/16 02:13:19;;;;;;;8.68;3.60;;;;;;;8.50;88.54;144346.08;1671906;86;21506;-67
2022/05/16 02:15:47;;;;;;;6.35;2.83;;;;;;;8.45;88.60;144336.09;1671486;86;21027;-70
2022/05/16 02:18:15;;;;;;;7.87;3.30;;;;;;;8.43;88.68;144331.08;1671918;86;21576;-62
2022/05/16 02:20:42;;;;;;;5.87;2.67;;;;;;;8.44;88.80;144332.31;1671684;86;21116;-64
2022/05/16 02:25:57;;;;;;;10.38;3.25;;;;;;;8.42;88.93;144327.30;1648519;87;21527;-71
2022/05/16 02:28:25;;;;;;;9.23;3.17;;;;;;;8.41;88.82;144326.06;1671512;86;21071;-69
2022/05/16 02:30:54;;;;;;;7.45;3.08;;;;;;;8.41;88.78;144326.06;1671504;86;21064;-63
2022/05/16 02:33:21;;;;;;;5.90;3.02;;;;;;;8.39;88.76;144321.05;1615054;89;21116;-66
2022/05/16 02:35:48;;;;;;;5.67;2.60;;;;;;;8.39;88.71;144319.75;1648371;87;21540;-63
2022/05/16 02:38:21;;;;;;;9.00;2.92;;;;;;;8.38;88.76;144318.50;1615199;89;21601;-63
2022/05/16 02:40:50;;;;;;;8.15;2.95;;;;;;;8.41;88.80;144326.06;1648289;87;21077;-66
2022/05/16 02:43:16;;;;;;;10.03;3.20;;;;;;;8.44;88.72;144332.31;1615293;89;21123;-63
2022/05/16 02:45:43;;;;;;;7.12;3.02;;;;;;;8.46;88.56;144338.58;1648317;87;21076;-61
2022/05/16 02:48:10;;;;;;;6.95;3.50;;;;;;;8.48;88.47;144343.59;1615079;88;21680;-62
2022/05/16 02:50:36;;;;;;;6.53;3.05;;;;;;;8.48;88.36;144343.59;1648443;87;21076;-69
2022/05/16 02:53:07;;;;;;;7.47;3.12;;;;;;;8.48;88.28;144343.59;1671755;86;21036;-64
2022/05/16 02:55:34;;;;;;;7.87;3.20;;;;;;;8.49;88.18;144344.84;1671920;86;21486;-67
2022/05/16 02:58:01;;;;;;;13.10;3.52;;;;;;;8.50;87.84;144346.08;1615215;89;21084;-64
2022/05/16 03:00:27;;;;;;;8.30;3.12;;;;;;;8.54;87.42;144356.13;1648511;87;21100;-66
2022/05/16 03:02:54;;;;;;;10.50;3.30;;;;;;;8.59;87.07;144368.64;1671586;86;21197;-66
2022/05/16 03:05:21;;;;;;;9.00;3.98;;;;;;;8.65;86.53;144384.94;1671656;86;21072;-68
2022/05/16 03:07:48;;;;;;;7.00;3.25;;;;;;;8.71;86.22;144398.70;1671679;86;21035;-63
2022/05/16 03:10:15;;;;;;;9.30;4.67;;;;;;;8.75;85.55;144408.73;1671838;86;21679;-64
2022/05/16 03:12:45;;;;;;;10.88;3.60;;;;;;;8.78;84.89;144416.25;1671672;86;21056;-62
2022/05/16 03:15:15;;;;;;;8.15;3.85;;;;;;;8.87;84.34;144438.75;1671066;86;21052;-60
2022/05/16 03:17:42;;;;;;;10.85;3.55;;;;;;;8.98;83.75;144463.81;1615390;89;21103;-63
2022/05/16 03:20:15;;;;;;;11.00;3.75;;;;;;;9.04;83.18;144478.87;1648515;87;21068;-64
2022/05/16 03:22:42;;;;;;;9.18;3.40;;;;;;;9.11;83.04;144496.41;1671991;86;21008;-65
2022/05/16 03:25:10;;;;;;;7.70;2.98;;;;;;;9.19;83.07;144516.45;1671604;86;21075;-64
2022/05/16 03:27:38;;;;;;;8.35;2.92;;;;;;;9.30;82.83;144542.75;1671570;86;21082;-59
2022/05/16 03:30:09;;;;;;;9.13;3.17;;;;;;;9.35;82.86;144556.52;1671620;86;21072;-67
2022/05/16 03:32:36;;;;;;;10.08;3.42;;;;;;;9.42;82.87;144572.83;1672093;86;21091;-67
2022/05/16 03:35:06;;;;;;;5.85;3.27;;;;;;;9.47;82.94;144585.36;1671718;86;21032;-67
2022/05/16 03:37:32;;;;;;;9.43;2.77;;;;;;;9.50;82.95;144591.63;1615414;89;21084;-62
2022/05/16 03:42:44;;;;;;;8.10;2.92;;;;;;;9.55;82.52;144604.16;1671651;86;21032;-66
2022/05/16 03:45:11;;;;;;;8.13;2.92;;;;;;;9.57;82.53;144609.17;1671631;86;21055;-61
2022/05/16 03:47:38;;;;;;;6.92;2.62;;;;;;;9.59;82.55;144614.16;1615328;89;21072;-62
2022/05/16 03:50:07;;;;;;;7.05;3.25;;;;;;;9.64;82.31;144626.73;1651136;87;21621;-69
2022/05/16 03:52:34;;;;;;;9.03;3.42;;;;;;;9.70;82.05;144641.75;1620295;89;21059;-66
2022/05/16 03:55:01;;;;;;;8.38;3.33;;;;;;;9.76;81.78;144656.78;1662923;86;21104;-62
2022/05/16 03:57:27;;;;;;;8.20;2.87;;;;;;;9.82;81.38;144670.59;1610772;89;21087;-64
2022/05/16 03:59:55;;;;;;;7.33;3.42;;;;;;;9.88;81.12;144684.38;1588547;88;21097;-67
2022/05/16 04:02:21;;;;;;;11.28;2.92;;;;;;;9.93;80.92;144696.91;1616515;88;21082;-60
2022/05/16 04:04:48;;;;;;;5.80;2.55;;;;;;;9.97;80.63;144708.20;1616648;88;21133;-67
2022/05/16 04:07:15;;;;;;;5.55;2.60;;;;;;;10.01;80.27;144716.97;1616553;89;21080;-65
2022/05/16 04:09:42;;;;;;;7.80;2.60;;;;;;;10.06;79.83;144729.50;1619492;87;21553;-69
2022/05/16 04:12:11;;;;;;;12.80;3.40;;;;;;;10.13;79.62;144745.81;1636430;86;21130;-66
2022/05/16 04:14:38;;;;;;;7.55;2.45;;;;;;;10.19;79.52;144762.08;1638321;88;21544;-64
2022/05/16 04:17:04;;;;;;;6.85;2.70;;;;;;;10.28;79.14;144783.47;1638092;87;21075;-65
2022/05/16 04:19:31;;;;;;;6.42;2.60;;;;;;;10.34;78.89;144798.50;1638315;87;21111;-63
2022/05/16 04:21:58;;;;;;;7.05;2.47;;;;;;;10.41;78.59;144816.06;1639683;86;21554;-60
2022/05/16 04:24:24;;;;;;;5.95;2.70;;;;;;;10.53;78.29;144844.94;1635319;86;21083;-70
2022/05/16 04:26:52;;;;;;;10.15;2.65;;;;;;;10.65;77.94;144873.75;1645234;86;21761;-65
2022/05/16 04:29:18;;;;;;;8.53;2.35;;;;;;;10.73;77.14;144893.81;1645976;86;21032;-61
2022/05/16 04:31:45;;;;;;;6.55;2.42;;;;;;;10.82;76.29;144915.16;1638319;86;21068;-63
2022/05/16 04:34:12;;;;;;;8.05;2.80;;;;;;;10.90;75.78;144933.98;1647821;86;21174;-61
2022/05/16 04:36:39;;;;;;;7.80;2.45;;;;;;;10.98;75.39;144955.28;1641124;86;21580;-62
2022/05/16 04:39:06;;;;;;;7.40;2.42;;;;;;;11.07;75.39;144976.64;1638209;86;21051;-63
2022/05/16 04:44:18;;;;;;;8.25;2.40;;;;;;;11.30;74.61;145033.11;1636470;87;21031;-61
2022/05/16 04:46:45;;;;;;;7.85;2.58;;;;;;;11.40;74.27;145058.20;1647037;86;21064;-63
2022/05/16 04:49:12;;;;;;;6.75;1.98;;;;;;;11.50;73.85;145083.31;1635212;87;21619;-59
2022/05/16 04:51:39;;;;;;;5.80;2.27;;;;;;;11.60;73.30;145105.88;1658302;86;21052;-64
2022/05/16 04:54:06;;;;;;;4.67;2.27;;;;;;;11.68;72.89;145126.00;1643060;86;21048;-59
2022/05/16 04:56:36;;;;;;;6.28;2.20;;;;;;;11.81;72.41;145158.62;1633221;87;21110;-59
2022/05/16 04:59:03;;;;;;;7.45;2.62;;;;;;;11.93;71.99;145188.81;1635241;87;21088;-64
2022/05/16 05:01:29;;;;;;;10.40;2.83;;;;;;;12.07;71.88;145221.45;1639211;87;21032;-61
2022/05/16 05:03:56;;;;;;;13.35;3.20;;;;;;;12.21;71.74;145256.58;1646672;86;21104;-62
2022/05/16 05:06:23;;;;;;;6.75;2.90;;;;;;;12.32;71.08;145283.00;1640772;86;21540;-61
2022/05/16 05:08:50;;;;;;;8.15;3.02;;;;;;;12.43;70.86;145310.61;1636779;87;21068;-58
2022/05/16 05:16:50;;;;;;;4.30;2.17;;;;;;;12.86;69.02;145414.89;1640782;87;21135;-60
2022/05/16 05:19:17;;;;;;;5.62;1.80;;;;;;;12.96;67.94;145440.03;1646458;85;21522;-61
2022/05/16 05:21:44;;;;;;;5.90;2.67;;;;;;;13.08;67.58;145470.19;1635424;86;21064;-62
2022/05/16 05:24:11;;;;;;;8.05;2.58;;;;;;;13.27;69.08;145516.72;1638219;86;21021;-62
2022/05/16 05:26:39;;;;;;;9.58;1.90;;;;;;;13.52;68.64;145578.33;1637253;87;21024;-61
2022/05/16 05:29:06;;;;;;;6.40;2.30;;;;;;;13.75;67.06;145633.66;1631534;86;21095;-61
2022/05/16 05:31:32;;;;;;;5.17;2.47;;;;;;;13.92;65.81;145676.41;1624297;88;21127;-60
2022/05/16 05:33:59;;;;;;;7.37;3.12;;;;;;;14.96;65.15;145933.09;1632965;88;21667;-58
2022/05/16 05:36:26;;;;;;;7.12;2.05;;;;;;;17.02;58.57;146439.53;1602525;89;21080;-58
2022/05/16 05:38:53;;;;;;;8.38;2.15;;;;;;;20.84;47.67;147381.36;1606336;89;21112;-62
2022/05/16 05:41:22;;;;;;;5.65;1.40;;;;;;;20.84;47.67;147381.36;1642177;86;21064;-60
2022/05/16 05:43:49;;;;;;;4.70;1.57;;;;;;;22.54;45.51;147802.61;1608849;87;21059;-60
2022/05/16 05:46:16;;;;;;;3.00;1.50;;;;;;;24.36;38.97;148252.19;1600607;87;21095;-60
2022/05/16 05:48:44;;;;;;;17.62;1.72;;;;;;;25.86;36.64;148622.50;1606179;88;21122;-62
2022/05/16 05:51:13;;;;;;;3.83;1.72;;;;;;;27.31;34.20;148982.94;1597964;89;21087;-63
2022/05/16 05:53:41;;;;;;;3.42;1.42;;;;;;;28.97;31.75;149394.53;1604811;89;21127;-58
2022/05/16 05:56:09;;;;;;;4.95;1.50;;;;;;;30.26;28.81;149716.31;1620754;87;21105;-61
2022/05/16 05:58:37;;;;;;;3.02;1.22;;;;;;;31.18;27.53;149942.80;1641573;87;21601;-60
2022/05/16 06:01:06;;;;;;;4.95;1.10;;;;;;;31.92;25.38;150127.38;1633096;86;21092;-61
2022/05/16 06:03:34;;;;;;;4.33;1.10;;;;;;;31.73;25.37;150081.56;1636798;86;21059;-60
2022/05/16 06:06:01;;;;;;;2.22;1.05;;;;;;;31.93;25.51;150131.27;1637478;87;21059;-59
2022/05/16 06:08:27;;;;;;;5.62;1.20;;;;;;;32.76;23.90;150336.28;1636034;86;21597;-59
2022/05/16 06:10:54;;;;;;;5.90;1.17;;;;;;;33.08;22.84;150417.86;1636074;87;21173;-61
2022/05/16 06:13:21;;;;;;;3.35;1.20;;;;;;;32.75;22.14;150333.77;1603999;88;21061;-60
2022/05/16 06:15:48;;;;;;;2.75;1.00;;;;;;;32.69;22.08;150319.72;1585021;89;21628;-59
2022/05/16 06:18:15;;;;;;;3.25;0.82;;;;;;;32.60;21.93;150298.08;1603709;88;21529;-60
2022/05/16 06:20:42;;;;;;;3.12;1.00;;;;;;;32.77;22.20;150338.81;1634919;87;21517;-62
2022/05/16 06:23:09;;;;;;;2.60;0.98;;;;;;;33.61;21.60;150547.83;1637445;87;21146;-60
2022/05/16 06:25:39;;;;;;;2.95;1.25;;;;;;;33.74;20.84;150581.00;1643588;87;21171;-59
2022/05/16 06:28:14;;;;;;;2.70;1.05;;;;;;;33.85;20.44;150609.02;1641378;86;21056;-63
2022/05/16 06:30:45;;;;;;;3.20;1.20;;;;;;;34.06;20.39;150659.98;1636972;87;21087;-60
2022/05/16 06:33:13;;;;;;;6.30;0.70;;;;;;;34.58;19.39;150790.13;1639131;87;21091;-59
2022/05/16 06:35:41;;;;;;;3.22;1.00;;;;;;;35.21;18.78;150948.30;1635354;87;21070;-59
2022/05/16 06:38:15;;;;;;;3.37;0.70;;;;;;;35.63;18.24;151051.64;1636473;87;21012;-59
2022/05/16 06:40:48;;;;;;;2.47;0.90;;;;;;;35.33;18.06;150976.33;1636157;87;21509;-60
2022/05/16 06:43:18;;;;;;;2.35;0.88;;;;;;;35.04;17.91;150903.61;1637077;87;21008;-60
2022/05/16 06:45:45;;;;;;;2.08;0.80;;;;;;;33.17;19.16;150438.23;1638173;87;21026;-61
2022/05/16 06:48:12;;;;;;;5.55;0.90;;;;;;;32.60;19.59;150298.08;1634866;87;21600;-61
2022/05/16 06:50:41;;;;;;;3.40;0.80;;;;;;;33.14;19.38;150430.59;1633252;87;21104;-60
2022/05/16 06:53:15;;;;;;;2.58;0.80;;;;;;;33.86;18.97;150610.28;1583011;90;21178;-60
2022/05/16 06:55:42;;;;;;;3.15;0.70;;;;;;;34.08;18.94;150665.16;1627409;86;21510;-60
2022/05/16 06:58:09;;;;;;;3.77;0.85;;;;;;;32.94;19.64;150382.13;1583132;89;21219;-59
2022/05/16 07:00:36;;;;;;;4.28;0.95;;;;;;;31.76;20.05;150089.19;1638751;86;21004;-62
2022/05/16 07:03:05;;;;;;;2.65;0.88;;;;;;;30.60;20.77;149798.97;1644423;86;21024;-62
2022/05/16 07:05:33;;;;;;;3.00;1.00;;;;;;;30.61;20.99;149801.55;1634967;86;21091;-64
2022/05/16 07:07:59;;;;;;;3.85;0.90;;;;;;;31.02;20.51;149903.36;1633788;86;21051;-60
2022/05/16 07:10:28;;;;;;;2.58;0.78;;;;;;;31.99;19.94;150146.52;1630099;86;21602;-59
2022/05/16 07:12:55;;;;;;;2.85;0.78;;;;;;;32.92;19.50;150375.77;1633930;86;21139;-60
2022/05/16 07:15:22;;;;;;;3.87;0.80;;;;;;;34.06;18.26;150659.98;1634995;86;21111;-60
2022/05/16 07:17:49;;;;;;;1.85;0.70;;;;;;;33.10;18.67;150420.39;1632759;86;21163;-61
2022/05/16 07:20:18;;;;;;;2.30;1.00;;;;;;;31.19;20.34;149945.31;1632954;86;21059;-60
2022/05/16 07:22:48;;;;;;;2.85;0.90;;;;;;;30.42;21.38;149754.45;1635060;86;21487;-60
2022/05/16 07:25:19;;;;;;;4.70;1.07;;;;;;;30.36;21.60;149740.47;1632150;86;21727;-59
2022/05/16 07:27:59;;;;;;;1.52;0.75;;;;;;;29.97;22.08;149642.48;1633696;86;21093;-60
2022/05/16 07:30:35;;;;;;;4.00;1.00;;;;;;;29.40;22.12;149502.59;1628527;86;21130;-60
2022/05/16 07:33:03;;;;;;;3.35;1.10;;;;;;;29.35;22.22;149488.63;1624828;85;22288;-61
2022/05/16 07:35:33;;;;;;;5.60;1.10;;;;;;;28.86;23.14;149366.59;1630841;86;21572;-62
2022/05/16 07:38:00;;;;;;;3.47;1.15;;;;;;;27.37;24.74;148998.16;1638962;85;21039;-60
2022/05/16 07:40:32;;;;;;;2.40;0.80;;;;;;;25.81;26.63;148609.77;1643728;86;21108;-59
2022/05/16 07:43:00;;;;;;;2.62;1.05;;;;;;;24.96;27.53;148399.22;1637345;85;21582;-59
2022/05/16 07:45:28;;;;;;;4.28;1.00;;;;;;;25.34;27.33;148494.41;1641623;85;21099;-61
2022/05/16 07:47:54;;;;;;;3.15;0.80;;;;;;;26.05;26.49;148670.67;1637877;86;21132;-60
2022/05/16 07:50:22;;;;;;;2.85;0.95;;;;;;;25.91;26.16;148635.19;1635039;86;21115;-59
2022/05/16 07:52:50;;;;;;;3.62;1.02;;;;;;;25.05;26.95;148423.31;1634568;85;21052;-59
2022/05/16 07:55:21;;;;;;;3.45;0.90;;;;;;;24.50;27.82;148285.17;1636360;86;21052;-59
2022/05/16 07:57:48;;;;;;;2.02;1.10;;;;;;;24.26;28.45;148226.86;1633390;85;21534;-59
2022/05/16 08:00:18;;;;;;;5.35;1.05;;;;;;;23.22;28.51;147968.45;1585715;89;21078;-59
2022/05/16 08:02:45;;;;;;;3.85;0.95;;;;;;;22.25;29.92;147730.45;1621481;87;21601;-59
2022/05/16 08:05:14;;;;;;;3.25;0.90;;;;;;;22.78;29.61;147859.55;1620124;87;21630;-59
2022/05/16 08:10:29;;;;;;;2.35;0.70;;;;;;;25.08;26.70;148430.91;1604295;87;21075;-60
2022/05/16 08:12:58;;;;;;;;;;;;;;;25.55;26.08;148546.37;1620179;87;21558;-60
2022/05/16 08:15:25;;;;;;;2.25;0.72;;;;;;;25.36;26.12;148498.17;1608103;87;20220;-59
2022/05/16 08:17:53;;;;;;;6.20;1.10;;;;;;;25.76;25.57;148599.61;1643206;86;21676;-60
2022/05/16 08:20:20;;;;;;;4.40;1.02;;;;;;;25.39;25.82;148505.77;1641762;86;21107;-59
2022/05/16 08:22:48;;;;;;;3.92;1.60;;;;;;;24.25;25.77;148224.34;1634628;86;21163;-60
2022/05/16 08:25:15;;;;;;;5.67;1.37;;;;;;;22.29;28.19;147740.59;1604839;88;21573;-61
2022/05/16 08:27:42;;;;;;;6.12;1.87;;;;;;;21.06;30.49;147434.44;1607955;87;21083;-60
2022/05/16 08:30:11;;;;;;;5.90;2.20;;;;;;;20.44;31.83;147281.47;1609865;87;21080;-60
2022/05/16 08:32:38;;;;;;;6.62;2.65;;;;;;;19.93;33.03;147156.39;1612730;87;21045;-59
2022/05/16 08:35:08;;;;;;;7.05;2.72;;;;;;;19.54;34.00;147060.38;1583750;89;21666;-61
2022/05/16 08:40:23;;;;;;;6.47;2.15;;;;;;;19.19;34.60;146974.50;1637327;86;21130;-60
2022/05/16 08:43:03;;;;;;;4.20;1.72;;;;;;;19.19;34.65;146974.50;1641956;86;20997;-60
2022/05/16 08:45:40;;;;;;;7.15;1.85;;;;;;;18.76;34.90;146867.20;1624959;86;21071;-59
2022/05/16 08:48:34;;;;;;;4.97;2.00;;;;;;;18.36;35.53;146769.97;1632247;86;21076;-60
2022/05/16 08:51:10;;;;;;;5.85;2.17;;;;;;;19.12;35.06;146956.81;1633199;86;21096;-61
2022/05/16 08:53:51;;;;;;;8.33;2.50;;;;;;;20.60;32.94;147321.94;1634262;86;21083;-59
2022/05/16 08:56:23;;;;;;;7.03;2.22;;;;;;;21.00;31.45;147420.53;1640393;86;21099;-58
2022/05/16 08:59:01;;;;;;;6.53;2.33;;;;;;;20.38;32.34;147267.58;1631804;86;21013;-58
2022/05/16 09:01:43;;;;;;;6.90;2.17;;;;;;;19.79;33.62;147122.25;1632801;86;21931;-58
2022/05/16 09:04:26;;;;;;;10.93;2.35;;;;;;;20.04;32.76;147184.16;1632766;86;21091;-58
2022/05/16 09:07:05;;;;;;;7.12;2.00;;;;;;;20.45;32.08;147285.22;1642696;86;21126;-58
2022/05/16 09:09:43;;;;;;;5.12;1.80;;;;;;;20.70;31.24;147345.95;1635875;85;21068;-58
2022/05/16 09:12:39;;;;;;;6.87;2.00;;;;;;;20.34;31.72;147257.45;1635638;85;21082;-58
2022/05/16 09:15:12;;;;;;;4.65;1.65;;;;;;;20.13;31.81;147206.91;1633158;86;21080;-58
2022/05/16 09:18:03;;;;;;;3.90;1.60;;;;;;;19.66;32.51;147089.37;1632927;85;21095;-58
2022/05/16 09:20:50;;;;;;;17.62;2.15;;;;;;;19.52;32.41;147055.31;1621683;86;21091;-58
2022/05/16 09:23:43;;;;;;;6.37;1.82;;;;;;;19.17;32.58;146968.19;1633767;86;21056;-58
2022/05/16 09:26:31;;;;;;;4.50;1.22;;;;;;;18.77;31.80;146869.70;1634193;86;21119;-58
2022/05/16 09:29:26;;;;;;;5.33;1.37;;;;;;;18.23;32.12;146738.42;1637704;86;21090;-60
2022/05/16 09:32:10;;;;;;;4.85;1.57;;;;;;;17.84;33.17;146641.31;1639018;86;21107;-59
2022/05/16 09:34:37;;;;;;;6.22;1.50;;;;;;;17.81;33.91;146632.45;1638310;86;21628;-60
2022/05/16 09:37:04;;;;;;;7.55;1.70;;;;;;;18.03;34.01;146686.70;1638127;86;21055;-60
2022/05/16 09:39:32;;;;;;;4.65;1.55;;;;;;;18.29;34.00;146751.03;1640694;86;21052;-60
2022/05/16 09:42:15;;;;;;;7.83;1.50;;;;;;;18.53;33.65;146810.37;1637693;86;22029;-59
2022/05/16 09:45:05;;;;;;;6.15;1.45;;;;;;;18.61;33.48;146830.55;1630527;86;21507;-59
2022/05/16 09:47:40;;;;;;;4.05;1.57;;;;;;;18.44;33.72;146790.19;1624945;87;21100;-59
2022/05/16 09:50:27;;;;;;;5.10;1.82;;;;;;;18.32;34.24;146759.89;1607111;87;22405;-60
2022/05/16 09:53:14;;;;;;;5.00;1.50;;;;;;;18.09;34.37;146701.83;1639699;86;22156;-59
2022/05/16 09:55:49;;;;;;;6.10;1.62;;;;;;;18.00;34.68;146680.41;1607858;88;21388;-61
2022/05/16 09:58:28;;;;;;;3.40;1.20;;;;;;;17.97;34.67;146672.84;1606230;88;21061;-59
2022/05/16 10:00:59;;;;;;;7.83;1.72;;;;;;;17.96;34.54;146671.59;1596617;89;21173;-58
2022/05/16 10:03:43;;;;;;;5.12;1.77;;;;;;;18.06;34.93;146694.27;1599308;89;21599;-59
2022/05/16 10:06:30;;;;;;;6.42;2.55;;;;;;;18.11;34.45;146706.88;1600320;89;21108;-60
2022/05/16 10:09:05;;;;;;;5.50;1.60;;;;;;;18.14;34.64;146714.44;1607629;89;21083;-59
2022/05/16 10:11:34;;;;;;;5.87;1.47;;;;;;;18.24;34.82;146739.67;1597416;89;21042;-59
2022/05/16 10:14:01;;;;;;;5.12;1.40;;;;;;;18.27;34.86;146747.28;1569055;89;21119;-59
2022/05/16 10:16:31;;;;;;;4.00;1.62;;;;;;;18.42;34.83;146783.87;1598782;88;21061;-59
2022/05/16 10:19:06;;;;;;;4.20;1.42;;;;;;;18.41;35.03;146782.58;1569029;89;21073;-59
2022/05/16 10:21:37;;;;;;;4.70;1.20;;;;;;;18.30;34.88;146754.84;1609721;88;21152;-58
2022/05/16 10:24:08;;;;;;;4.92;1.55;;;;;;;18.05;34.84;146691.77;1607265;87;21145;-63
2022/05/16 10:26:42;;;;;;;3.87;1.42;;;;;;;17.87;35.55;146647.63;1607244;88;21033;-60
2022/05/16 10:29:20;;;;;;;5.62;1.50;;;;;;;17.73;35.19;146613.48;1610058;88;21105;-59
2022/05/16 10:34:56;;;;;;;7.72;1.62;;;;;;;17.74;35.23;146617.30;1608845;88;21542;-60
2022/05/16 10:37:29;;;;;;;4.20;1.32;;;;;;;17.99;35.11;146679.16;1589148;88;21087;-59
2022/05/16 10:40:04;;;;;;;5.22;1.57;;;;;;;18.26;34.98;146744.73;1639509;85;21116;-59
2022/05/16 10:42:50;;;;;;;4.78;1.40;;;;;;;18.52;34.98;146807.81;1637538;86;21045;-59
2022/05/16 10:45:21;;;;;;;3.58;1.00;;;;;;;18.57;34.25;146820.44;1633362;87;21045;-60
2022/05/16 10:48:05;;;;;;;5.03;1.20;;;;;;;18.58;33.92;146824.23;1637079;87;21099;-57
2022/05/16 10:50:58;;;;;;;3.47;1.25;;;;;;;18.70;33.51;146853.28;1638978;86;21100;-57
2022/05/16 10:53:36;;;;;;;2.98;1.10;;;;;;;18.90;33.40;146901.25;1629531;86;21179;-57
2022/05/16 10:56:11;;;;;;;3.65;1.27;;;;;;;18.86;33.54;146893.70;1610380;86;21590;-58
2022/05/16 10:58:54;;;;;;;5.42;1.40;;;;;;;18.73;33.83;146860.84;1621979;86;21072;-57
2022/05/16 11:01:41;;;;;;;3.42;1.25;;;;;;;18.43;34.30;146787.63;1631765;86;21111;-57
2022/05/16 11:04:52;;;;;;;4.28;1.95;;;;;;;18.28;34.19;146749.78;1628730;86;21120;-57
2022/05/16 11:07:23;;;;;;;;;;;;;;;18.16;34.52;146720.75;1637891;86;21601;-57
2022/05/16 11:10:19;;;;;;;7.67;1.30;;;;;;;18.32;34.03;146759.89;1628076;86;20119;-58
2022/05/16 11:13:29;;;;;;;3.98;1.30;;;;;;;18.60;34.01;146828.05;1639595;86;21077;-58
2022/05/16 11:16:08;;;;;;;5.12;1.30;;;;;;;19.01;33.22;146930.31;1636197;86;21095;-57
2022/05/16 11:18:50;;;;;;;2.85;1.30;;;;;;;18.86;33.03;146893.70;1629552;86;21029;-58
2022/05/16 11:21:44;;;;;;;6.40;1.32;;;;;;;18.64;33.22;146838.11;1636211;86;21091;-57
2022/05/16 11:24:49;;;;;;;7.30;1.47;;;;;;;18.64;33.22;146838.11;1633787;86;21131;-57
2022/05/16 11:28:09;;;;;;;7.12;1.62;;;;;;;18.63;32.85;146835.61;1637570;86;21048;-58
2022/05/16 11:30:48;;;;;;;4.08;1.35;;;;;;;18.64;32.98;146838.11;1632298;86;21139;-58
2022/05/16 11:33:40;;;;;;;6.03;2.25;;;;;;;18.85;33.05;146889.89;1585328;89;21552;-58
2022/05/16 11:36:32;;;;;;;5.85;1.22;;;;;;;19.09;32.50;146949.25;1588815;88;21694;-58
2022/05/16 11:39:10;;;;;;;4.45;1.20;;;;;;;19.19;31.61;146974.50;1617780;88;21056;-57
2022/05/16 11:41:51;;;;;;;2.42;1.20;;;;;;;19.22;31.83;146980.81;1577304;90;21612;-58
2022/05/16 11:44:41;;;;;;;4.05;0.85;;;;;;;19.40;31.95;147026.25;1639045;85;21116;-57
2022/05/16 11:47:25;;;;;;;2.87;0.90;;;;;;;19.60;31.39;147074.25;1629049;86;21080;-58
2022/05/16 11:50:09;;;;;;;4.67;0.88;;;;;;;19.58;31.33;147069.19;1613960;86;21155;-58
2022/05/16 11:53:11;;;;;;;5.08;2.00;;;;;;;19.67;31.51;147093.23;1643406;86;21598;-59
2022/05/16 12:01:33;;;;;;;6.67;3.05;;;;;;;19.95;31.43;147162.70;1639635;86;21111;-57
2022/05/16 12:04:17;;;;;;;8.23;2.87;;;;;;;19.95;31.69;147161.45;1638470;86;21117;-58
2022/05/16 12:06:48;;;;;;;7.72;3.15;;;;;;;19.66;31.98;147090.64;1642606;86;21101;-57
2022/05/16 12:09:25;;;;;;;5.50;2.58;;;;;;;19.71;32.01;147103.31;1641650;86;21150;-58
2022/05/16 12:12:11;;;;;;;8.33;2.20;;;;;;;19.63;32.18;147083.06;1642729;86;21583;-57
2022/05/16 12:14:42;;;;;;;6.70;1.92;;;;;;;19.44;32.09;147036.38;1647325;85;21157;-58
2022/05/16 12:17:19;;;;;;;7.05;2.30;;;;;;;19.20;32.63;146977.00;1625278;87;21090;-59
2022/05/16 12:19:51;;;;;;;5.00;2.08;;;;;;;18.90;32.74;146901.25;1562163;88;21166;-57
2022/05/16 12:22:38;;;;;;;6.62;1.90;;;;;;;18.69;33.26;146849.47;1589118;89;21094;-57